EST,Max TemperatureF,Mean TemperatureF,Min TemperatureF,Max Dew PointF,MeanDew PointF,Min DewpointF,Max Humidity, Mean Humidity, Min Humidity, Max Sea Level PressureIn, Mean Sea Level PressureIn, Min Sea Level PressureIn, Max VisibilityMiles, Mean VisibilityMiles, Min VisibilityMiles, Max Wind SpeedMPH, Mean Wind SpeedMPH, Max Gust SpeedMPH,PrecipitationIn, CloudCover, Events, WindDirDegrees
2013-2-1,59,46,33,32,26,18,75,45,23,30.37,30.23,30.17,10,10,8,22,9,30,0.00,0,,287
2013-2-2,57,44,32,45,32,16,100,66,48,30.38,30.28,30.11,10,10,10,8,4,,0.00,0,,85
2013-2-3,62,50,39,41,33,30,87,54,31,30.10,30.02,29.93,10,10,9,18,6,26,0.00,1,,275
2013-2-4,55,44,32,39,34,28,100,70,36,30.16,30.10,30.05,10,10,7,5,0,,0.00,0,,115
2013-2-5,69,52,35,50,43,34,100,77,33,30.09,30.03,29.96,10,9,5,14,3,18,0.00,0,,228
2013-2-6,71,58,44,54,48,45,100,80,40,30.20,30.12,30.03,10,8,4,10,2,,0.00,0,,190
2013-2-7,60,52,44,55,52,43,100,97,82,30.18,30.04,29.71,10,4,1,10,2,,1.43,5,Rain-Thunderstorm,48
2013-2-8,64,57,50,57,49,46,100,78,56,30.07,29.90,29.71,10,9,2,18,9,24,0.13,4,Rain,301
2013-2-9,62,50,35,48,35,23,100,66,22,30.35,30.24,30.06,10,10,4,10,4,,0.00,0,,354
2013-2-10,64,50,35,55,45,36,100,82,55,30.41,30.32,30.21,10,9,3,13,2,16,0.00,0,,91
2013-2-11,66,63,60,63,61,55,100,95,82,30.24,30.14,30.07,9,4,1,17,5,24,2.30,6,Rain,213
2013-2-12,60,56,51,61,55,48,100,93,63,30.14,30.03,29.90,10,5,1,12,4,,4.00,7,Rain-Thunderstorm,314
2013-2-13,73,60,48,64,54,46,100,83,43,29.90,29.79,29.70,10,7,0,25,6,34,0.40,5,Fog-Rain-Thunderstorm,261
2013-2-14,53,48,42,48,42,36,100,77,54,30.09,30.02,29.87,10,9,3,10,5,,0.00,0,,344
2013-2-15,59,47,35,46,41,36,100,83,48,30.12,30.05,29.98,10,7,1,9,1,,0.00,0,,135
2013-2-16,51,43,35,46,39,32,100,91,58,30.04,29.91,29.85,10,8,2,20,4,30,0.06,1,Rain,311
2013-2-17,46,38,30,32,20,9,87,55,23,30.33,30.19,30.04,10,10,10,20,10,28,0.00,0,,310
2013-2-18,53,40,28,34,27,16,93,68,24,30.44,30.37,30.29,10,10,10,10,1,,0.00,0,,151
2013-2-19,66,50,35,57,47,34,100,89,52,30.28,30.10,29.99,10,8,1,17,4,30,0.39,3,Rain,233
2013-2-20,55,44,33,50,35,27,100,67,33,30.17,30.11,30.05,10,10,9,9,4,,0.00,0,,266
2013-2-21,60,48,35,46,40,36,100,80,45,30.20,30.15,30.11,10,10,7,8,1,,0.00,0,,106
2013-2-22,62,55,48,63,51,43,100,90,71,30.21,30.13,30.06,10,6,0,12,4,24,0.41,7,Fog-Rain,58
2013-2-23,62,54,46,63,52,46,100,99,94,30.06,29.94,29.79,10,4,0,15,4,23,3.35,7,Rain,300
2013-2-24,66,57,46,57,49,37,100,84,35,30.01,29.94,29.79,10,8,0,12,6,,0.00,3,Fog,310
2013-2-25,51,46,42,48,45,39,100,94,81,30.10,30.03,29.97,10,6,2,14,3,23,0.15,4,Rain,45
2013-2-26,71,60,50,66,59,48,100,87,56,29.96,29.73,29.60,10,5,1,31,11,39,0.76,4,Rain,171
2013-2-27,64,56,48,54,42,36,94,63,48,29.91,29.84,29.71,10,10,7,13,9,22,0.00,1,,259
2013-2-28,60,54,48,41,35,30,71,51,31,29.91,29.85,29.79,10,10,9,17,10,26,0.00,0,,283